หน้าหลัก
METAR-TAF:

METAR-TAF

ท่าอากาศยาน :

เกาะอีสเตอร์, ชิลี

ละติจูด: 27-09S, ลองจิจูด: 109-25W, ความสูง: 51 ม.

การสังเกตสภาพอากาศปัจจุบัน

รายงานได้ทำขึ้นเมื่อ 50 นาทีที่แล้ว ณ เวลา 19:00 UTC
ลม 11 นอตจากตะวันออกเฉียงเหนือ, แปรผันระหว่างเหนือ และตะวันออก
อุณหภูมิ 21°C
ความชื้น 64%
ความกดอากาศ 1030 hPa
ทัศนวิสัย 10 กม. หรือมากกว่า
มีเมฆกระจายเป็นบางส่วนที่ความสูง 2800 ฟุต

METAR: SCIP 201900Z 05011KT 360V080 9999 SCT028 21/14 Q1030 NOSIG

เวลา: 13:50 (19:50 UTC)

การพยากรณ์

รายงานได้ทำขึ้นเมื่อ 3 ชั่วโมงและ 7 นาทีที่แล้ว ณ เวลา 16:43 UTC
การพยากรณ์มีผลตั้งแต่วันที่ 20 ณ เวลา 18 UTC จนถึงวันที่ 21 ณ เวลา 18 UTC
ลม 10 นอตจากตะวันออก/ตะวันออกเฉียงเหนือ
ทัศนวิสัย 10 กม. หรือมากกว่า
มีเมฆน้อยที่ความสูง 3000 ฟุต
มีเมฆกระจายเป็นบางส่วนที่ความสูง 4000 ฟุต
ชั่วคราว
ตั้งแต่วันที่ 20 ณ เวลา 18 UTC จนถึงวันที่ 21 ณ เวลา 04 UTC
ทัศนวิสัย: 5000 ม.
มีเมฆกระจายเป็นบางส่วนที่ความสูง 1500 ฟุต
มีเมฆเป็นส่วนมากเว้นเป็นระยะที่ความสูง 2700 ฟุต
ฝนโปรยปรายเล็กน้อย,

TAF: SCIP 201643Z 2018/2118 07010KT 9999 FEW030 SCT040 TN17/2111Z TX21/2019Z TEMPO 2018/2104 5000 -SHRA SCT015 BKN027

สังเกตการณ์สภาพอากาศและพยากรณ์อากาศของสนามบินมากกว่า 4000 แห่ง (รายงาน METAR และ TAF).

สถานีที่ดูได้จะแสดงไว้ด้วยจุดสีเหลืองและสีแดงบนแผนที่.

เลื่อนเมาส์ไปเหนือจุดเพื่อดูชื่อสถานี.

แล้วคลิกเพื่อดูสังเกตการณ์และการพยากรณ์สภาพอากาศ.

ในการเปลี่ยนแผนที่: คลิกที่ปุ่มสีเขียวที่มีกากบาทสีดำเพื่อซูมเข้า; ที่ปุ่มสีเขียวที่มีขีดเพื่อซูมออก; หรือที่ลูกศรสีเขียวเพื่อไปยังแผนที่ที่อยู่ติดกัน.


METAR-TAF: